createdAt,value
2022-08-11T00:37:24.029Z,5.33
2022-08-11T00:39:53.354Z,4.87
2022-08-11T00:42:29.352Z,5.10
2022-08-11T00:45:04.282Z,4.87
2022-08-11T00:47:42.915Z,5.30
2022-08-11T00:50:16.551Z,6.37
2022-08-11T00:53:04.367Z,4.70
2022-08-11T00:55:47.168Z,4.90
2022-08-11T00:58:45.032Z,5.57
2022-08-11T01:01:27.220Z,5.60
2022-08-11T01:04:10.410Z,7.23
2022-08-11T01:06:50.363Z,5.30
2022-08-11T01:09:35.302Z,5.13
2022-08-11T01:12:20.940Z,6.10
2022-08-11T01:15:08.203Z,5.53
2022-08-11T01:18:09.997Z,5.20
2022-08-11T01:21:01.292Z,6.57
2022-08-11T01:23:51.137Z,5.37
2022-08-11T01:26:38.173Z,6.07
2022-08-11T01:29:21.289Z,5.53
2022-08-11T01:32:02.492Z,6.50
2022-08-11T01:34:49.584Z,6.47
2022-08-11T01:37:40.461Z,5.73
2022-08-11T01:40:23.596Z,6.10
2022-08-11T01:43:29.426Z,5.40
2022-08-11T01:45:59.124Z,5.30
2022-08-11T01:48:35.527Z,5.90
2022-08-11T01:51:08.584Z,6.47
2022-08-11T01:53:53.247Z,6.13
2022-08-11T01:56:29.439Z,6.30
2022-08-11T01:59:01.487Z,5.60
2022-08-11T02:01:35.851Z,6.23
2022-08-11T02:04:11.234Z,6.00
2022-08-11T02:06:55.786Z,6.70
2022-08-11T02:09:33.377Z,6.20
2022-08-11T02:12:14.838Z,6.17
2022-08-11T02:15:04.578Z,5.87
2022-08-11T02:17:40.426Z,5.30
2022-08-11T02:20:34.955Z,5.80
2022-08-11T02:24:04.832Z,5.37
2022-08-11T02:26:16.357Z,5.90
2022-08-11T02:28:55.752Z,6.87
2022-08-11T02:32:24.199Z,7.03
2022-08-11T02:34:39.931Z,5.67
2022-08-11T02:37:16.038Z,7.40
2022-08-11T02:40:02.051Z,7.50
2022-08-11T02:42:35.877Z,7.17
2022-08-11T02:45:28.790Z,7.53
2022-08-11T02:48:17.610Z,7.30
2022-08-11T02:50:51.867Z,7.63
2022-08-11T02:53:25.446Z,7.77
2022-08-11T02:55:58.242Z,7.80
2022-08-11T02:58:35.403Z,8.03
2022-08-11T03:01:11.511Z,7.23
2022-08-11T03:03:45.918Z,7.57
2022-08-11T03:06:16.715Z,7.93
2022-08-11T03:08:52.489Z,7.30
2022-08-11T03:11:40.950Z,7.80
2022-08-11T03:14:34.246Z,8.37
2022-08-11T03:17:07.504Z,8.37
2022-08-11T03:19:40.320Z,8.37
2022-08-11T03:22:11.376Z,8.50
2022-08-11T03:24:51.173Z,7.87
2022-08-11T03:27:28.854Z,7.70
2022-08-11T03:30:04.729Z,8.30
2022-08-11T03:32:36.567Z,8.03
2022-08-11T03:35:05.727Z,8.50
2022-08-11T03:37:50.376Z,7.97
2022-08-11T03:40:39.013Z,8.43
2022-08-11T03:43:11.639Z,7.83
2022-08-11T03:45:50.907Z,8.17
2022-08-11T03:48:22.722Z,8.30
2022-08-11T03:51:01.596Z,8.47
2022-08-11T03:53:37.589Z,8.23
2022-08-11T03:56:20.275Z,7.73
2022-08-11T03:59:06.755Z,8.07
2022-08-11T04:01:53.210Z,8.53
2022-08-11T04:04:42.134Z,8.50
2022-08-11T04:07:48.393Z,7.60
2022-08-11T04:10:33.874Z,8.47
2022-08-11T04:13:14.906Z,8.53
2022-08-11T04:16:00.687Z,8.20
2022-08-11T04:18:52.574Z,8.53
2022-08-11T04:21:39.543Z,8.57
2022-08-11T04:24:38.205Z,7.97
2022-08-11T04:27:37.662Z,8.30
2022-08-11T04:30:13.183Z,8.40
2022-08-11T04:32:49.946Z,8.60
2022-08-11T04:35:35.964Z,9.03
2022-08-11T04:38:26.097Z,8.83
2022-08-11T04:41:15.063Z,8.27
2022-08-11T04:44:06.351Z,8.83
2022-08-11T04:46:45.875Z,8.43
2022-08-11T04:49:50.455Z,8.50
2022-08-11T04:52:48.112Z,8.57
2022-08-11T04:55:45.674Z,8.73
2022-08-11T04:58:37.129Z,8.90
2022-08-11T05:01:35.182Z,8.77
2022-08-11T05:04:40.792Z,8.47
2022-08-11T05:07:27.470Z,9.43
2022-08-11T05:10:08.785Z,9.40
2022-08-11T05:12:43.855Z,9.43
2022-08-11T05:15:51.609Z,9.00
2022-08-11T05:18:40.203Z,9.10
2022-08-11T05:21:26.937Z,9.37
2022-08-11T05:24:15.931Z,8.80
2022-08-11T05:27:06.894Z,9.10
2022-08-11T05:29:59.134Z,9.20
2022-08-11T05:32:49.798Z,9.07
2022-08-11T05:36:00.519Z,9.13
2022-08-11T05:38:28.993Z,9.17
2022-08-11T05:41:15.800Z,9.20
2022-08-11T05:44:20.425Z,8.93
2022-08-11T05:47:08.401Z,9.77
2022-08-11T05:49:56.713Z,9.73
2022-08-11T05:52:46.838Z,9.30
2022-08-11T05:55:33.946Z,9.50
2022-08-11T05:58:03.864Z,9.37
2022-08-11T06:00:33.810Z,9.17
2022-08-11T06:03:07.308Z,9.60
2022-08-11T06:05:43.762Z,9.07
2022-08-11T06:08:13.760Z,9.50
2022-08-11T06:10:43.616Z,10.30
2022-08-11T06:13:12.166Z,9.50
2022-08-11T06:15:45.785Z,9.33
2022-08-11T06:18:15.028Z,10.50
2022-08-11T06:20:49.634Z,9.30
2022-08-11T06:23:20.403Z,9.27
2022-08-11T06:25:49.127Z,9.47
2022-08-11T06:28:20.808Z,11.37
2022-08-11T06:30:49.830Z,10.03
2022-08-11T06:33:19.830Z,10.47
2022-08-11T06:35:53.473Z,12.17
2022-08-11T06:38:29.906Z,9.47
2022-08-11T06:41:17.591Z,9.87
2022-08-11T06:43:55.798Z,9.90
2022-08-11T06:46:28.581Z,10.47
2022-08-11T06:48:57.646Z,11.33
2022-08-11T06:51:28.046Z,12.13
2022-08-11T06:54:05.572Z,22.17
2022-08-11T06:57:12.424Z,22.73
2022-08-11T07:00:00.569Z,21.93
2022-08-11T07:02:33.616Z,26.53
2022-08-11T07:05:04.048Z,28.83
2022-08-11T07:08:33.065Z,27.30
2022-08-11T07:11:21.266Z,22.47
2022-08-11T07:14:09.698Z,27.40
2022-08-11T07:16:40.871Z,28.37
2022-08-11T07:19:23.559Z,28.43
2022-08-11T07:22:09.591Z,29.63
2022-08-11T07:24:59.257Z,27.90
2022-08-11T07:27:52.404Z,29.70
2022-08-11T07:30:20.746Z,29.20
2022-08-11T07:32:52.996Z,28.80
2022-08-11T07:35:23.563Z,29.40
2022-08-11T07:38:01.829Z,29.53
2022-08-11T07:40:31.026Z,29.77
2022-08-11T07:43:01.544Z,30.43
2022-08-11T07:45:47.591Z,28.53
2022-08-11T07:48:34.575Z,29.47
2022-08-11T07:51:21.046Z,30.10
2022-08-11T07:53:58.814Z,29.40
2022-08-11T07:56:48.733Z,29.17
2022-08-11T08:00:03.411Z,29.83
2022-08-11T08:02:49.682Z,29.63
2022-08-11T08:05:36.237Z,29.50
2022-08-11T08:08:22.184Z,28.97
2022-08-11T08:11:09.245Z,30.40
2022-08-11T08:13:55.257Z,29.57
2022-08-11T08:16:42.411Z,30.23
2022-08-11T08:19:12.744Z,29.13
2022-08-11T08:21:41.127Z,30.57
2022-08-11T08:24:14.374Z,30.20
2022-08-11T08:27:01.301Z,30.03
2022-08-11T08:29:49.035Z,29.87
2022-08-11T08:32:19.335Z,29.07
2022-08-11T08:34:48.191Z,30.10
2022-08-11T08:37:46.118Z,30.43
2022-08-11T08:40:09.129Z,29.30
2022-08-11T08:42:45.487Z,29.10
2022-08-11T08:45:16.266Z,29.87
2022-08-11T08:47:52.944Z,29.33
2022-08-11T08:52:29.509Z,28.40
2022-08-11T08:53:12.279Z,29.37
2022-08-11T08:55:45.378Z,29.53
2022-08-11T08:58:14.519Z,29.33
2022-08-11T09:00:43.895Z,28.53
2022-08-11T09:03:39.126Z,29.23
2022-08-11T09:06:02.666Z,29.33
2022-08-11T09:08:33.172Z,31.50
2022-08-11T09:11:28.430Z,29.07
2022-08-11T09:14:05.752Z,30.10
2022-08-11T09:16:36.055Z,29.50
2022-08-11T09:19:05.946Z,28.30
2022-08-11T09:21:49.198Z,29.83
2022-08-11T09:24:41.135Z,29.80
2022-08-11T09:27:10.240Z,28.80
2022-08-11T09:29:39.871Z,29.10
2022-08-11T09:32:08.865Z,29.23
2022-08-11T09:34:39.109Z,30.33
2022-08-11T09:37:53.565Z,29.17
2022-08-11T09:40:30.963Z,29.63
2022-08-11T09:43:17.377Z,31.83
2022-08-11T09:45:50.483Z,30.23
2022-08-11T09:48:19.397Z,31.30
2022-08-11T09:50:50.310Z,29.63
2022-08-11T09:53:37.724Z,32.33
2022-08-11T09:56:21.767Z,33.50
2022-08-11T09:58:51.103Z,31.00
2022-08-11T10:01:27.988Z,29.63
2022-08-11T10:04:01.226Z,31.57
2022-08-11T10:06:54.029Z,30.00
2022-08-11T10:09:24.979Z,30.43
2022-08-11T10:11:55.432Z,30.10
2022-08-11T10:14:44.924Z,29.70
2022-08-11T10:17:15.268Z,28.80
2022-08-11T10:20:05.095Z,29.23
2022-08-11T10:22:53.292Z,28.67
2022-08-11T10:25:39.828Z,29.17
2022-08-11T10:28:33.118Z,29.03
2022-08-11T10:31:16.664Z,28.83
2022-08-11T10:34:01.687Z,29.20
2022-08-11T10:36:32.509Z,29.47
2022-08-11T10:39:03.091Z,29.30
2022-08-11T10:42:08.304Z,29.93
2022-08-11T10:44:39.265Z,30.50
2022-08-11T10:47:26.159Z,29.10
2022-08-11T10:50:09.235Z,29.43
2022-08-11T10:52:55.971Z,29.20
2022-08-11T10:55:44.568Z,29.30
2022-08-11T10:58:30.572Z,29.83
2022-08-11T11:00:59.468Z,29.80
2022-08-11T11:03:28.452Z,29.10
2022-08-11T11:06:27.405Z,29.67
2022-08-11T11:08:58.758Z,29.50
2022-08-11T11:11:46.113Z,29.50
2022-08-11T11:14:34.977Z,29.13
2022-08-11T11:17:21.940Z,29.53
2022-08-11T11:19:51.779Z,29.80
2022-08-11T11:22:45.514Z,28.73
2022-08-11T11:25:32.566Z,28.80
2022-08-11T11:28:17.429Z,28.40
2022-08-11T11:30:52.356Z,29.77
2022-08-11T11:33:24.386Z,29.50
2022-08-11T11:36:01.554Z,29.50
2022-08-11T11:38:30.548Z,29.30
2022-08-11T11:41:16.730Z,30.53
2022-08-11T11:43:46.850Z,30.20
2022-08-11T11:46:15.363Z,29.90
2022-08-11T11:48:45.136Z,29.40
2022-08-11T11:51:14.029Z,30.73
2022-08-11T11:53:45.089Z,29.43
2022-08-11T11:56:14.097Z,29.37
2022-08-11T11:59:00.112Z,30.33
2022-08-11T12:01:29.931Z,29.60
2022-08-11T12:03:59.288Z,29.73
2022-08-11T12:06:27.991Z,29.57
2022-08-11T12:08:57.922Z,30.97
2022-08-11T12:11:44.727Z,50.27
2022-08-11T12:14:13.371Z,51.47
2022-08-11T12:16:45.188Z,55.03
2022-08-11T12:19:14.699Z,56.77
2022-08-11T12:22:05.193Z,59.03
2022-08-11T12:24:51.947Z,57.80
2022-08-11T12:27:24.990Z,58.60
2022-08-11T12:29:55.867Z,61.17
2022-08-11T12:32:26.530Z,62.47
2022-08-11T12:34:57.882Z,62.33
2022-08-11T12:37:30.138Z,64.07
2022-08-11T12:40:49.502Z,62.97
2022-08-11T12:43:38.084Z,61.30
2022-08-11T12:46:09.044Z,60.00
2022-08-11T12:49:02.331Z,61.03
2022-08-11T12:52:10.973Z,61.00
2022-08-11T12:54:44.204Z,58.40
2022-08-11T12:57:36.485Z,61.43
2022-08-11T13:00:32.430Z,61.53
2022-08-11T13:03:18.705Z,65.43
2022-08-11T13:05:49.722Z,63.40
2022-08-11T13:08:18.580Z,63.27
2022-08-11T13:11:05.110Z,60.33
2022-08-11T13:13:53.993Z,60.20
2022-08-11T13:16:23.384Z,60.03
2022-08-11T13:18:53.422Z,59.90
2022-08-11T13:21:24.505Z,61.27
2022-08-11T13:24:01.424Z,63.27
2022-08-11T13:26:47.190Z,61.07
2022-08-11T13:29:22.141Z,59.80
2022-08-11T13:31:50.728Z,57.53
2022-08-11T13:34:19.919Z,57.73
2022-08-11T13:36:51.967Z,57.00
2022-08-11T13:39:21.223Z,52.93
2022-08-11T13:41:53.150Z,49.87
2022-08-11T13:44:25.640Z,30.87
2022-08-11T13:46:55.240Z,30.90
2022-08-11T13:49:24.102Z,30.30
2022-08-11T13:51:54.486Z,32.67
2022-08-11T13:54:24.489Z,30.20
2022-08-11T13:56:58.499Z,31.57
2022-08-11T13:59:31.058Z,34.77
2022-08-11T14:02:22.273Z,30.20
2022-08-11T14:04:54.775Z,31.63
2022-08-11T14:07:26.446Z,30.07
2022-08-11T14:10:01.180Z,30.33
2022-08-11T14:12:48.797Z,30.47
2022-08-11T14:15:20.102Z,29.53
2022-08-11T14:17:51.494Z,30.67
2022-08-11T14:20:39.693Z,29.83
2022-08-11T14:23:11.087Z,30.10
2022-08-11T14:26:02.631Z,30.00
2022-08-11T14:28:37.524Z,25.27
2022-08-11T14:31:09.499Z,9.43
2022-08-11T14:33:59.425Z,7.77
2022-08-11T14:36:28.194Z,7.57
2022-08-11T14:38:58.330Z,7.97
2022-08-11T14:42:11.323Z,8.13
2022-08-11T14:44:52.631Z,7.77
2022-08-11T14:47:24.367Z,7.90
2022-08-11T14:49:58.297Z,8.47
2022-08-11T14:52:40.838Z,7.23
2022-08-11T14:55:28.651Z,8.03
2022-08-11T14:57:57.533Z,8.50
2022-08-11T15:00:26.598Z,8.63
2022-08-11T15:03:10.516Z,7.57
2022-08-11T15:05:41.317Z,7.47
2022-08-11T15:08:10.440Z,7.80
2022-08-11T15:10:40.300Z,7.73
2022-08-11T15:13:10.215Z,7.93
2022-08-11T15:15:56.602Z,8.17
2022-08-11T15:18:26.511Z,7.83
2022-08-11T15:21:12.771Z,7.77
2022-08-11T15:23:59.141Z,7.93
2022-08-11T15:26:49.571Z,8.30
2022-08-11T15:29:40.813Z,7.77
2022-08-11T15:32:28.815Z,8.03
2022-08-11T15:35:17.000Z,8.33
2022-08-11T15:37:45.908Z,7.93
2022-08-11T15:40:35.564Z,9.60
2022-08-11T15:43:29.133Z,8.50
2022-08-11T15:46:02.456Z,8.03
2022-08-11T15:48:36.429Z,8.10
2022-08-11T15:51:09.269Z,7.93
2022-08-11T15:53:42.588Z,7.90
2022-08-11T15:56:12.114Z,7.77
2022-08-11T15:59:10.643Z,8.37
2022-08-11T16:02:08.352Z,8.30
2022-08-11T16:04:38.659Z,8.03
2022-08-11T16:07:08.047Z,8.17
2022-08-11T16:09:47.643Z,10.47
2022-08-11T16:12:22.908Z,8.40
2022-08-11T16:15:11.521Z,7.90
2022-08-11T16:17:44.367Z,7.67
2022-08-11T16:20:14.409Z,8.30
2022-08-11T16:23:00.481Z,7.27
2022-08-11T16:27:03.158Z,7.27
2022-08-11T16:28:21.299Z,7.33
2022-08-11T16:30:51.725Z,7.03
2022-08-11T16:33:49.963Z,7.73
2022-08-11T16:36:30.973Z,7.03
2022-08-11T16:39:00.457Z,6.53
2022-08-11T16:41:48.347Z,7.03
2022-08-11T16:44:37.691Z,6.30
2022-08-11T16:47:09.719Z,6.27
2022-08-11T16:49:38.929Z,7.20
2022-08-11T16:52:11.040Z,7.07
2022-08-11T16:54:44.423Z,6.53
2022-08-11T16:57:33.029Z,6.47
2022-08-11T17:00:04.691Z,6.30
2022-08-11T17:02:53.129Z,6.30
2022-08-11T17:05:54.738Z,6.60
2022-08-11T20:11:42.368Z,3.40
2022-08-11T20:14:30.963Z,3.47
2022-08-11T20:17:16.969Z,3.80
2022-08-11T20:20:03.080Z,3.40
2022-08-11T20:22:52.681Z,2.80
2022-08-11T20:25:40.251Z,3.17
2022-08-11T20:28:26.653Z,3.10
2022-08-11T20:31:14.350Z,3.67
2022-08-11T20:34:07.304Z,3.40
2022-08-11T20:36:55.779Z,3.57
2022-08-11T20:39:44.066Z,3.03
2022-08-11T20:42:31.273Z,3.33
2022-08-11T20:45:23.289Z,3.23
2022-08-11T20:48:15.267Z,3.27
2022-08-11T20:51:05.928Z,3.43
2022-08-11T20:53:54.074Z,3.00
2022-08-11T20:56:41.450Z,3.30
2022-08-11T21:02:39.122Z,3.67
2022-08-11T21:08:33.205Z,3.37
2022-08-11T21:11:27.461Z,3.50
2022-08-11T21:14:14.167Z,3.80
2022-08-11T21:17:01.346Z,3.20
2022-08-11T21:20:10.862Z,3.63
2022-08-11T21:23:05.201Z,3.67
2022-08-11T21:25:53.823Z,3.80
2022-08-11T21:28:41.430Z,3.27
2022-08-11T21:31:28.220Z,3.77
2022-08-11T21:34:14.587Z,3.30
2022-08-11T21:37:01.626Z,3.40
2022-08-11T21:39:48.786Z,3.63
2022-08-11T21:42:35.362Z,3.83
2022-08-11T21:45:22.087Z,3.37
2022-08-11T21:48:08.837Z,3.43
2022-08-11T21:50:55.002Z,3.73
2022-08-11T21:53:41.568Z,3.43
2022-08-11T21:56:30.455Z,3.17
2022-08-11T21:59:16.638Z,3.23
2022-08-11T22:02:03.361Z,3.47
2022-08-11T22:04:50.583Z,3.40
2022-08-11T22:07:39.534Z,4.27
2022-08-11T22:10:41.076Z,4.13
2022-08-11T22:13:31.495Z,3.53
2022-08-11T22:16:17.793Z,3.70
2022-08-11T22:19:06.106Z,4.17
2022-08-11T22:22:02.479Z,3.60
2022-08-11T22:24:49.356Z,3.70
2022-08-11T22:27:44.877Z,3.77
2022-08-11T22:30:32.008Z,3.40
2022-08-11T22:33:24.490Z,3.30
2022-08-11T22:36:15.216Z,4.20
2022-08-11T22:39:01.834Z,3.20
2022-08-11T22:41:47.870Z,4.10
2022-08-11T22:44:36.499Z,3.90
2022-08-11T22:47:38.339Z,4.10
2022-08-11T22:50:27.327Z,4.20
2022-08-11T22:53:13.363Z,4.20
2022-08-11T22:55:59.526Z,3.93
2022-08-11T22:58:45.958Z,3.80
2022-08-11T23:01:33.515Z,3.60
2022-08-11T23:04:22.175Z,3.50
2022-08-11T23:07:11.693Z,3.60
2022-08-11T23:09:58.781Z,3.60
2022-08-11T23:12:46.928Z,4.00
2022-08-11T23:15:33.714Z,3.50
2022-08-11T23:18:24.065Z,3.60
2022-08-11T23:21:13.824Z,4.00
2022-08-11T23:24:00.491Z,3.73
2022-08-11T23:26:49.748Z,4.00
2022-08-11T23:29:44.157Z,3.93
2022-08-11T23:32:32.410Z,3.90
2022-08-11T23:35:40.008Z,3.60
2022-08-11T23:38:31.713Z,3.73
2022-08-11T23:41:17.880Z,4.37
2022-08-11T23:44:04.374Z,4.47
2022-08-11T23:46:50.637Z,3.87
2022-08-11T23:49:36.874Z,3.80
2022-08-11T23:52:23.176Z,3.83
2022-08-11T23:55:10.336Z,4.30
2022-08-11T23:57:55.861Z,3.53
